Kaolack, Senegal
Current Conditions -  °F | °C
As of 7:00 PM on Friday 28 Nov 2014 (Local Time) from GOOK Reporting Station
Clear Clear  
Wind Chill: 86°   Ceiling: Unl
Heat Index: 93°   Visibility: 6mi
Dew Point: 73°   Wind: 5mph
Humidity: 66%   Direction: 320°NW
Pressure: 29.83"   Gusts: NA
Location:  14.15°N, 16.1°W
Report Text: GOOK 281900Z 32004KT CAVOK 30/23 Q1010
Loading
Personal Weather Stations






























Interactive Weather Map New forecast layout! Learn more

10-Day Weather Forecast

Advertisements
Track Severe Weather on mobile